Time;durP1;ratioP1;P1;durP2;ratioP2;P2;SDS_P1;SDS_P2;PMS_P1;PMS_P2;Temp;Humidity;BMP_temperature;BMP_pressure;BME280_temperature;BME280_humidity;BME280_pressure;Samples;Min_cycle;Max_cycle;Signal;HPM_P1;HPM_P2
2023/05/26 00:01:28;;;;;;;2.13;1.92;;;16.60;99.90;;;;;;5054399;28;20302;-68
2023/05/26 00:03:57;;;;;;;2.00;1.90;;;16.70;99.90;;;;;;5053966;28;20263;-67
2023/05/26 00:06:24;;;;;;;1.70;1.58;;;16.70;99.90;;;;;;5057897;28;20195;-67
2023/05/26 00:08:51;;;;;;;2.92;2.22;;;16.70;99.90;;;;;;5040679;28;20198;-68
2023/05/26 00:11:18;;;;;;;2.17;2.00;;;16.70;99.90;;;;;;5054551;28;20261;-68
2023/05/26 00:13:46;;;;;;;1.98;1.88;;;16.70;99.90;;;;;;5037359;28;20238;-69
2023/05/26 00:16:14;;;;;;;2.13;1.92;;;16.60;99.90;;;;;;5056106;28;20237;-68
2023/05/26 00:18:41;;;;;;;2.10;2.00;;;16.60;99.90;;;;;;5056633;28;20302;-66
2023/05/26 00:21:08;;;;;;;2.47;2.28;;;16.60;99.90;;;;;;5059813;28;20268;-68
2023/05/26 00:23:35;;;;;;;2.13;2.03;;;16.50;99.90;;;;;;5060535;28;20680;-68
2023/05/26 00:26:03;;;;;;;2.25;1.75;;;16.50;99.90;;;;;;5058355;28;20233;-68
2023/05/26 00:28:30;;;;;;;2.35;1.95;;;16.50;99.90;;;;;;5059110;28;20289;-68
2023/05/26 00:30:57;;;;;;;2.20;2.00;;;16.50;99.90;;;;;;5039276;28;20282;-68
2023/05/26 00:33:25;;;;;;;2.17;2.08;;;16.40;99.90;;;;;;5056817;28;20228;-67
2023/05/26 00:35:53;;;;;;;1.98;1.88;;;16.40;99.90;;;;;;5059037;28;20647;-68
2023/05/26 00:38:20;;;;;;;2.00;1.90;;;16.40;99.90;;;;;;5053131;28;20227;-68
2023/05/26 00:40:47;;;;;;;2.08;1.98;;;16.40;99.90;;;;;;5056264;28;20793;-68
2023/05/26 00:43:14;;;;;;;2.15;2.05;;;16.40;99.90;;;;;;5051850;28;20223;-67
2023/05/26 00:45:41;;;;;;;3.67;1.98;;;16.40;99.90;;;;;;5039624;28;20682;-68
2023/05/26 00:48:08;;;;;;;1.95;1.85;;;16.40;99.90;;;;;;5047710;28;20238;-67
2023/05/26 00:50:38;;;;;;;3.83;2.50;;;16.40;99.90;;;;;;5054223;28;20250;-67
2023/05/26 00:53:05;;;;;;;1.92;1.83;;;16.30;99.90;;;;;;5055098;28;20666;-70
2023/05/26 00:55:33;;;;;;;2.30;2.20;;;16.30;99.90;;;;;;5057999;28;20864;-69
2023/05/26 00:58:01;;;;;;;2.10;2.00;;;16.30;99.90;;;;;;5056593;28;20841;-69
2023/05/26 01:00:28;;;;;;;2.03;1.92;;;16.30;99.90;;;;;;5054400;28;20280;-69
2023/05/26 01:02:58;;;;;;;2.15;2.05;;;16.30;99.90;;;;;;5055859;28;20289;-69
2023/05/26 01:05:26;;;;;;;2.40;2.22;;;16.30;99.90;;;;;;5058167;28;20206;-69
2023/05/26 01:07:54;;;;;;;2.25;2.15;;;16.30;99.90;;;;;;5058232;28;20856;-69
2023/05/26 01:10:22;;;;;;;2.67;2.17;;;16.20;99.90;;;;;;5039451;28;20297;-69
2023/05/26 01:12:55;;;;;;;2.33;2.22;;;16.20;99.90;;;;;;5055153;28;21886;-68
2023/05/26 01:15:27;;;;;;;2.20;2.10;;;16.20;99.90;;;;;;5057457;28;20213;-69
2023/05/26 01:17:59;;;;;;;1.92;1.83;;;16.10;99.90;;;;;;5057874;28;20194;-69
2023/05/26 01:20:30;;;;;;;2.67;2.47;;;16.10;99.90;;;;;;5054674;28;20670;-69
2023/05/26 01:23:21;;;;;;;2.10;2.00;;;16.10;99.90;;;;;;5054608;28;20234;-69
2023/05/26 01:26:15;;;;;;;2.13;2.03;;;16.10;99.90;;;;;;5058881;28;20210;-68
2023/05/26 01:28:45;;;;;;;1.90;1.80;;;16.00;99.90;;;;;;5059740;28;20217;-68
2023/05/26 01:31:13;;;;;;;2.10;1.98;;;16.00;99.90;;;;;;5055956;28;20249;-69
2023/05/26 01:33:40;;;;;;;2.42;2.30;;;16.00;99.90;;;;;;5059154;28;20285;-69
2023/05/26 01:36:07;;;;;;;2.35;2.20;;;16.00;99.90;;;;;;5051603;28;20199;-69
2023/05/26 01:38:35;;;;;;;2.78;2.20;;;16.00;99.90;;;;;;5036190;28;20297;-69
2023/05/26 01:41:11;;;;;;;2.33;2.20;;;15.90;99.90;;;;;;5056116;28;20656;-69
2023/05/26 01:43:44;;;;;;;2.22;2.13;;;15.90;99.90;;;;;;5056169;28;20198;-69
2023/05/26 01:46:19;;;;;;;2.45;2.35;;;15.90;99.90;;;;;;5056548;28;20635;-69
2023/05/26 01:48:48;;;;;;;2.00;1.90;;;15.90;99.90;;;;;;5059093;28;20297;-69
2023/05/26 01:51:18;;;;;;;2.65;2.45;;;15.90;99.90;;;;;;5034523;28;20218;-69
2023/05/26 01:53:49;;;;;;;2.72;2.42;;;15.90;99.90;;;;;;5040157;28;20202;-69
2023/05/26 01:56:18;;;;;;;2.20;2.10;;;15.90;99.90;;;;;;5036328;28;20202;-69
2023/05/26 01:58:49;;;;;;;2.38;2.28;;;15.90;99.90;;;;;;5056914;28;20306;-69
2023/05/26 02:01:16;;;;;;;2.15;2.05;;;15.90;99.90;;;;;;5055960;28;20309;-69
2023/05/26 02:03:43;;;;;;;3.47;2.22;;;15.90;99.90;;;;;;5051936;28;20664;-69
2023/05/26 02:06:10;;;;;;;2.47;2.30;;;15.90;99.90;;;;;;5060328;28;20202;-69
2023/05/26 02:08:37;;;;;;;2.28;2.17;;;15.90;99.90;;;;;;5054697;28;20388;-69
2023/05/26 02:11:05;;;;;;;2.35;2.15;;;15.80;99.90;;;;;;5037329;28;20315;-69
2023/05/26 02:13:32;;;;;;;2.38;2.28;;;15.80;99.90;;;;;;5051580;28;20199;-69
2023/05/26 02:16:00;;;;;;;2.42;2.30;;;15.70;99.90;;;;;;5054241;28;20265;-69
2023/05/26 02:18:27;;;;;;;2.22;2.13;;;15.80;99.90;;;;;;5058331;28;20227;-69
2023/05/26 02:20:54;;;;;;;2.55;2.35;;;15.80;99.90;;;;;;5042084;28;20721;-69
2023/05/26 02:23:21;;;;;;;2.20;2.10;;;15.80;99.90;;;;;;5056600;28;20233;-69
2023/05/26 02:25:48;;;;;;;2.15;2.03;;;15.80;99.90;;;;;;5058617;28;20198;-69
2023/05/26 02:28:16;;;;;;;2.50;2.40;;;15.80;99.90;;;;;;5058611;28;20253;-69
2023/05/26 02:30:43;;;;;;;2.72;2.53;;;15.80;99.90;;;;;;5044460;28;20224;-69
2023/05/26 02:33:11;;;;;;;2.08;1.98;;;15.70;99.90;;;;;;5041437;28;20750;-69
2023/05/26 02:35:38;;;;;;;2.10;2.00;;;15.60;99.90;;;;;;5060183;28;20649;-69
2023/05/26 02:38:05;;;;;;;2.40;2.20;;;15.60;99.90;;;;;;5059417;28;20285;-69
2023/05/26 02:40:32;;;;;;;2.40;2.20;;;15.60;99.90;;;;;;5059544;28;20319;-69
2023/05/26 02:42:59;;;;;;;2.53;2.10;;;15.50;99.90;;;;;;5055343;28;20734;-69
2023/05/26 02:45:26;;;;;;;2.47;2.38;;;15.50;99.90;;;;;;5057263;28;20293;-68
2023/05/26 02:47:53;;;;;;;2.50;2.30;;;15.50;99.90;;;;;;5059221;28;20785;-68
2023/05/26 02:50:22;;;;;;;2.40;2.20;;;15.40;99.90;;;;;;5052701;28;20226;-68
2023/05/26 02:52:49;;;;;;;2.55;2.38;;;15.40;99.90;;;;;;5056743;28;20289;-68
2023/05/26 02:55:16;;;;;;;2.65;2.00;;;15.30;99.90;;;;;;5059826;28;20198;-68
2023/05/26 02:57:43;;;;;;;2.33;2.20;;;15.30;99.90;;;;;;5063475;28;20784;-69
2023/05/26 03:00:12;;;;;;;2.58;2.38;;;15.20;99.90;;;;;;5052474;28;20261;-68
2023/05/26 03:02:39;;;;;;;3.92;2.30;;;15.20;99.90;;;;;;5068728;28;20209;-68
2023/05/26 03:05:07;;;;;;;2.63;2.42;;;15.20;99.90;;;;;;5060314;28;20264;-68
2023/05/26 03:07:36;;;;;;;2.28;2.15;;;15.20;99.90;;;;;;5059003;28;20198;-68
2023/05/26 03:10:03;;;;;;;2.38;2.28;;;15.20;99.90;;;;;;5054806;28;20274;-68
2023/05/26 03:12:30;;;;;;;2.30;2.20;;;15.20;99.90;;;;;;5046023;28;20198;-68
2023/05/26 03:14:58;;;;;;;2.40;2.30;;;15.20;99.90;;;;;;5069228;28;20224;-69
2023/05/26 03:17:25;;;;;;;2.63;2.42;;;15.20;99.90;;;;;;5074550;28;20206;-69
2023/05/26 03:19:52;;;;;;;2.60;2.40;;;15.30;99.90;;;;;;5058504;28;20210;-69
2023/05/26 03:22:19;;;;;;;2.00;1.90;;;15.30;99.90;;;;;;5059780;28;20272;-69
2023/05/26 03:24:47;;;;;;;2.40;2.20;;;15.20;99.90;;;;;;5057026;28;20198;-68
2023/05/26 03:27:17;;;;;;;2.50;2.30;;;15.20;99.90;;;;;;5039192;28;20225;-68
2023/05/26 03:29:44;;;;;;;2.88;2.50;;;15.20;99.90;;;;;;5052161;28;20206;-69
2023/05/26 03:32:11;;;;;;;2.33;2.22;;;15.20;99.90;;;;;;5059594;28;20230;-68
2023/05/26 03:34:39;;;;;;;2.40;2.25;;;15.20;99.90;;;;;;5058608;28;20932;-69
2023/05/26 03:37:06;;;;;;;2.90;2.60;;;15.20;99.90;;;;;;5065970;28;20862;-68
2023/05/26 03:39:33;;;;;;;2.72;2.50;;;15.20;99.90;;;;;;5055628;28;20218;-69
2023/05/26 03:42:02;;;;;;;2.40;2.30;;;15.20;99.90;;;;;;5059698;28;20728;-68
2023/05/26 03:44:29;;;;;;;2.55;2.42;;;15.20;99.90;;;;;;5040065;28;20847;-68
2023/05/26 03:46:56;;;;;;;3.17;2.38;;;15.20;99.90;;;;;;5059158;28;20198;-67
2023/05/26 03:49:23;;;;;;;2.38;2.20;;;15.10;99.90;;;;;;5057868;28;20218;-68
2023/05/26 03:51:51;;;;;;;2.78;2.20;;;15.10;99.90;;;;;;5038990;28;20218;-69
2023/05/26 03:54:18;;;;;;;2.67;2.30;;;15.10;99.90;;;;;;5056602;28;20194;-69
2023/05/26 03:56:45;;;;;;;2.53;2.33;;;15.00;99.90;;;;;;5037044;28;20199;-69
2023/05/26 03:59:13;;;;;;;2.58;2.47;;;15.00;99.90;;;;;;5037011;28;20201;-69
2023/05/26 04:01:41;;;;;;;2.50;2.30;;;15.00;99.90;;;;;;5054488;28;20780;-69
2023/05/26 04:04:08;;;;;;;2.00;1.90;;;15.00;99.90;;;;;;5056545;28;20225;-69
2023/05/26 04:06:35;;;;;;;2.45;2.35;;;15.00;99.90;;;;;;5060128;28;20246;-68
2023/05/26 04:09:03;;;;;;;3.13;2.55;;;15.10;99.90;;;;;;5057730;28;20222;-69
2023/05/26 04:11:30;;;;;;;2.38;2.17;;;15.10;99.90;;;;;;5057539;28;20226;-69
2023/05/26 04:13:58;;;;;;;2.35;2.25;;;15.10;99.90;;;;;;5061787;28;20823;-69
2023/05/26 04:16:27;;;;;;;2.55;2.33;;;15.20;99.90;;;;;;5055014;28;20209;-69
2023/05/26 04:18:54;;;;;;;2.20;2.10;;;15.20;99.90;;;;;;5055530;28;20238;-69
2023/05/26 04:21:21;;;;;;;2.20;2.10;;;15.30;99.90;;;;;;5056339;28;20970;-69
2023/05/26 04:23:51;;;;;;;2.70;2.50;;;15.40;99.90;;;;;;5058753;28;20703;-69
2023/05/26 04:26:18;;;;;;;2.33;2.17;;;15.40;99.90;;;;;;5055564;28;20190;-69
2023/05/26 04:28:46;;;;;;;2.40;2.28;;;15.50;99.90;;;;;;5057398;28;20203;-67
2023/05/26 04:31:16;;;;;;;2.10;2.00;;;15.60;99.90;;;;;;5056419;28;20221;-69
2023/05/26 04:33:45;;;;;;;3.40;2.40;;;15.70;99.90;;;;;;5053904;28;20686;-69
2023/05/26 04:36:16;;;;;;;2.17;2.08;;;15.70;99.90;;;;;;5057530;28;20199;-69
2023/05/26 04:38:45;;;;;;;2.50;2.30;;;15.80;99.90;;;;;;5038037;28;20539;-69
2023/05/26 04:41:12;;;;;;;4.47;2.45;;;15.90;99.90;;;;;;5053232;28;20215;-69
2023/05/26 04:43:43;;;;;;;2.70;2.30;;;15.90;99.90;;;;;;5057716;28;20294;-68
2023/05/26 04:46:10;;;;;;;2.00;1.90;;;16.10;99.90;;;;;;5042535;28;20264;-68
2023/05/26 04:48:37;;;;;;;2.55;2.45;;;16.20;99.90;;;;;;5038255;28;20694;-69
2023/05/26 04:51:07;;;;;;;2.53;2.30;;;16.20;99.90;;;;;;5054667;28;20307;-69
2023/05/26 04:53:34;;;;;;;2.40;2.30;;;16.30;99.90;;;;;;5041304;28;20206;-69
2023/05/26 04:56:03;;;;;;;2.50;2.33;;;16.40;99.90;;;;;;5057411;28;20206;-69
2023/05/26 04:58:31;;;;;;;2.60;2.40;;;16.40;99.90;;;;;;5059545;28;20710;-69
2023/05/26 05:01:02;;;;;;;2.40;2.20;;;16.50;99.90;;;;;;5042219;28;20691;-69
2023/05/26 05:03:31;;;;;;;2.60;2.40;;;16.50;99.90;;;;;;5056716;28;20293;-69
2023/05/26 05:05:58;;;;;;;2.90;2.70;;;16.60;99.90;;;;;;5057856;28;20199;-68
2023/05/26 05:08:27;;;;;;;2.97;2.67;;;16.70;99.90;;;;;;5056208;28;20229;-69
2023/05/26 05:10:54;;;;;;;3.28;2.97;;;16.70;99.90;;;;;;5049235;28;20306;-69
2023/05/26 05:13:21;;;;;;;3.00;2.70;;;16.80;99.90;;;;;;5053665;28;20295;-69
2023/05/26 05:15:49;;;;;;;2.97;2.67;;;16.90;99.90;;;;;;5041782;28;20289;-69
2023/05/26 05:18:16;;;;;;;2.85;2.55;;;17.00;99.90;;;;;;5036892;28;20204;-69
2023/05/26 05:20:43;;;;;;;3.03;2.83;;;17.20;99.90;;;;;;5037821;28;20254;-69
2023/05/26 05:23:10;;;;;;;2.78;2.55;;;17.30;99.90;;;;;;5058828;28;20206;-69
2023/05/26 05:25:38;;;;;;;4.15;2.92;;;17.40;99.90;;;;;;5040970;28;20198;-69
2023/05/26 05:28:06;;;;;;;4.25;3.17;;;17.50;99.90;;;;;;5039940;28;20263;-69
2023/05/26 05:30:33;;;;;;;4.63;3.55;;;17.50;99.90;;;;;;5053777;28;20305;-69
2023/05/26 05:33:00;;;;;;;3.53;3.22;;;17.50;99.90;;;;;;5058607;28;20229;-69
2023/05/26 05:35:27;;;;;;;3.95;3.03;;;17.70;99.90;;;;;;5058629;28;20248;-69
2023/05/26 05:37:56;;;;;;;7.88;3.63;;;17.70;99.90;;;;;;5057730;28;20282;-69
2023/05/26 05:40:23;;;;;;;3.67;3.35;;;17.70;99.90;;;;;;5054989;28;20305;-69
2023/05/26 05:42:52;;;;;;;3.60;3.30;;;17.70;99.90;;;;;;5037024;28;20788;-69
2023/05/26 05:45:19;;;;;;;3.83;3.53;;;17.60;99.90;;;;;;5058710;28;20241;-69
2023/05/26 05:47:46;;;;;;;3.13;2.92;;;17.70;99.90;;;;;;5057192;28;20298;-69
2023/05/26 05:50:13;;;;;;;5.35;3.15;;;17.80;99.90;;;;;;5055888;28;20202;-69
2023/05/26 05:52:40;;;;;;;3.53;3.22;;;17.90;99.90;;;;;;5062255;28;20234;-69
2023/05/26 05:55:08;;;;;;;3.65;3.03;;;18.00;99.90;;;;;;5042629;28;20212;-69
2023/05/26 05:57:35;;;;;;;4.47;3.00;;;18.20;99.90;;;;;;5057586;28;20316;-69
2023/05/26 06:00:04;;;;;;;3.80;3.50;;;18.30;99.90;;;;;;5059707;28;20351;-69
2023/05/26 06:02:31;;;;;;;4.25;3.85;;;18.40;99.90;;;;;;5058244;28;20277;-69
2023/05/26 06:04:58;;;;;;;4.10;3.53;;;18.40;99.90;;;;;;5042288;28;20190;-69
2023/05/26 06:07:25;;;;;;;3.55;3.25;;;18.50;99.90;;;;;;5054932;28;20293;-68
2023/05/26 06:09:52;;;;;;;3.17;2.97;;;18.40;99.90;;;;;;5058908;28;20229;-69
2023/05/26 06:12:19;;;;;;;3.70;3.33;;;18.40;99.90;;;;;;5053151;28;20249;-69
2023/05/26 06:14:46;;;;;;;4.10;3.38;;;18.50;99.90;;;;;;5059144;28;20263;-69
2023/05/26 06:17:15;;;;;;;3.60;3.30;;;18.60;99.90;;;;;;5057817;28;20735;-68
2023/05/26 06:19:42;;;;;;;3.50;3.20;;;18.70;99.90;;;;;;5056702;28;20226;-69
2023/05/26 06:22:09;;;;;;;3.88;3.47;;;18.70;99.90;;;;;;5041765;28;20214;-68
2023/05/26 06:24:36;;;;;;;3.20;3.00;;;18.80;99.90;;;;;;5055999;28;20194;-67
2023/05/26 06:27:04;;;;;;;4.07;3.67;;;18.80;99.90;;;;;;5059710;28;20687;-68
2023/05/26 06:29:31;;;;;;;4.50;3.50;;;18.80;99.90;;;;;;5057211;28;20580;-68
2023/05/26 06:31:58;;;;;;;3.60;3.30;;;18.90;99.90;;;;;;5057602;28;20252;-67
2023/05/26 06:34:26;;;;;;;3.92;3.63;;;18.80;99.90;;;;;;5061437;28;20297;-68
2023/05/26 06:36:54;;;;;;;5.32;3.75;;;18.90;99.90;;;;;;5057598;28;20314;-68
2023/05/26 06:39:23;;;;;;;4.18;3.78;;;19.00;99.90;;;;;;5054767;28;20201;-68
2023/05/26 06:41:50;;;;;;;4.00;3.67;;;19.00;99.90;;;;;;5055006;28;20214;-67
2023/05/26 06:44:17;;;;;;;4.05;3.70;;;19.10;99.90;;;;;;5059847;28;20676;-68
2023/05/26 06:46:44;;;;;;;5.45;3.38;;;19.10;99.90;;;;;;5056488;28;20225;-69
2023/05/26 06:49:11;;;;;;;4.07;3.60;;;19.20;99.90;;;;;;5061534;28;20209;-69
2023/05/26 06:51:40;;;;;;;6.28;3.65;;;19.30;99.90;;;;;;5060338;28;20305;-68
2023/05/26 06:54:07;;;;;;;4.10;3.42;;;19.30;99.90;;;;;;5060775;28;20306;-69
2023/05/26 06:56:34;;;;;;;3.83;3.50;;;19.40;99.90;;;;;;5055744;28;20230;-69
2023/05/26 06:59:01;;;;;;;3.78;3.25;;;19.50;99.90;;;;;;5057046;28;20195;-68
2023/05/26 07:01:29;;;;;;;4.03;3.63;;;19.70;99.90;;;;;;5041124;28;20248;-69
2023/05/26 07:03:56;;;;;;;4.40;3.15;;;19.90;99.90;;;;;;5040389;28;20210;-69
2023/05/26 07:06:23;;;;;;;3.63;3.22;;;20.20;99.90;;;;;;5058993;28;20202;-69
2023/05/26 07:08:52;;;;;;;3.83;3.53;;;20.40;99.90;;;;;;5053765;28;20229;-68
2023/05/26 07:11:19;;;;;;;3.88;3.50;;;20.50;99.90;;;;;;5056886;28;20309;-69
2023/05/26 07:13:47;;;;;;;4.53;3.85;;;20.50;99.90;;;;;;5055283;28;20289;-68
2023/05/26 07:16:14;;;;;;;3.28;2.95;;;20.50;99.90;;;;;;5056849;28;20195;-69
2023/05/26 07:18:41;;;;;;;3.85;3.45;;;20.50;99.90;;;;;;5054752;28;20285;-68
2023/05/26 07:21:08;;;;;;;3.58;3.28;;;20.60;99.90;;;;;;5058973;28;20896;-69
2023/05/26 07:23:35;;;;;;;3.25;3.05;;;20.60;99.90;;;;;;5056489;28;20234;-69
2023/05/26 07:26:03;;;;;;;3.50;3.20;;;20.50;99.90;;;;;;5056188;28;20231;-69
2023/05/26 07:28:35;;;;;;;4.45;3.15;;;20.60;99.90;;;;;;5059871;28;20257;-69
2023/05/26 07:31:02;;;;;;;4.15;3.60;;;20.70;99.90;;;;;;5053079;28;20229;-69
2023/05/26 07:33:29;;;;;;;3.47;3.22;;;20.70;99.90;;;;;;5056629;28;20305;-69
2023/05/26 07:35:56;;;;;;;3.63;3.33;;;20.90;99.90;;;;;;5057174;28;20302;-69
2023/05/26 07:38:23;;;;;;;6.53;3.30;;;21.00;99.90;;;;;;5053440;28;20283;-69
2023/05/26 07:40:51;;;;;;;3.53;3.22;;;21.10;99.90;;;;;;5058406;28;20320;-68
2023/05/26 07:43:20;;;;;;;4.13;3.60;;;21.10;99.90;;;;;;5066488;28;20512;-69
2023/05/26 07:45:47;;;;;;;3.47;3.17;;;21.20;99.90;;;;;;5069899;28;20202;-68
2023/05/26 07:48:15;;;;;;;3.83;3.35;;;21.40;99.90;;;;;;5059319;28;20234;-69
2023/05/26 07:50:42;;;;;;;5.07;3.30;;;21.60;99.90;;;;;;5034365;28;20254;-69
2023/05/26 07:53:09;;;;;;;3.10;2.90;;;21.60;99.90;;;;;;5053164;28;20345;-69
2023/05/26 07:55:37;;;;;;;4.25;3.00;;;21.80;99.90;;;;;;5049616;28;20285;-70
2023/05/26 07:58:05;;;;;;;3.30;3.00;;;21.90;99.90;;;;;;5054694;28;20237;-71
2023/05/26 08:00:33;;;;;;;3.42;3.15;;;21.90;99.90;;;;;;5055336;28;20226;-71
2023/05/26 08:03:00;;;;;;;3.53;3.08;;;21.90;99.90;;;;;;5056344;28;20302;-71
2023/05/26 08:05:28;;;;;;;4.13;3.40;;;22.10;99.90;;;;;;5058651;28;20211;-72
2023/05/26 08:07:54;;;;;;;3.40;2.83;;;22.20;99.90;;;;;;5056592;28;20288;-71
2023/05/26 08:10:22;;;;;;;4.65;3.67;;;22.30;99.90;;;;;;5053223;28;20281;-70
2023/05/26 08:12:50;;;;;;;6.45;4.35;;;22.30;99.90;;;;;;5057890;28;20290;-71
2023/05/26 08:15:20;;;;;;;3.55;3.25;;;22.30;99.90;;;;;;5058177;28;20198;-70
2023/05/26 08:17:49;;;;;;;6.22;2.72;;;22.30;99.90;;;;;;5055756;28;20276;-70
2023/05/26 08:20:16;;;;;;;3.47;3.05;;;22.40;99.90;;;;;;5054104;28;20194;-70
2023/05/26 08:22:44;;;;;;;3.78;3.40;;;22.50;99.90;;;;;;5053088;28;20210;-71
2023/05/26 08:25:12;;;;;;;2.80;2.53;;;22.70;99.90;;;;;;5055436;28;20648;-70
2023/05/26 08:27:39;;;;;;;3.58;2.90;;;22.80;99.90;;;;;;5053612;28;20206;-70
2023/05/26 08:30:08;;;;;;;2.95;2.65;;;22.90;99.90;;;;;;5048498;28;20286;-70
2023/05/26 08:32:35;;;;;;;3.58;3.20;;;22.90;99.90;;;;;;5051571;28;20282;-70
2023/05/26 08:35:05;;;;;;;3.28;3.00;;;23.00;99.90;;;;;;5056721;28;20217;-70
2023/05/26 08:37:32;;;;;;;3.53;3.00;;;23.00;99.90;;;;;;5057382;28;20289;-69
2023/05/26 08:39:59;;;;;;;3.88;2.80;;;23.00;99.90;;;;;;5029198;28;20287;-68
2023/05/26 08:42:30;;;;;;;2.70;2.50;;;23.20;99.90;;;;;;5054613;28;20226;-72
2023/05/26 08:44:58;;;;;;;3.65;3.10;;;23.40;99.90;;;;;;5056208;28;20199;-70
2023/05/26 08:47:27;;;;;;;3.00;2.70;;;23.40;99.90;;;;;;5054023;28;20737;-70
2023/05/26 08:49:58;;;;;;;3.92;3.13;;;23.40;99.90;;;;;;5053037;28;20230;-70
2023/05/26 08:52:26;;;;;;;7.90;3.47;;;23.50;99.90;;;;;;5053516;28;20305;-70
2023/05/26 08:54:53;;;;;;;3.30;3.00;;;23.70;99.90;;;;;;5055733;28;20882;-70
2023/05/26 08:57:21;;;;;;;3.67;3.22;;;23.80;99.90;;;;;;5052225;28;20237;-70
2023/05/26 08:59:49;;;;;;;3.33;2.90;;;23.90;99.90;;;;;;5050461;28;20288;-70
2023/05/26 09:02:17;;;;;;;3.25;2.95;;;24.00;99.90;;;;;;5048512;28;20238;-69
2023/05/26 09:04:44;;;;;;;4.95;3.22;;;24.10;99.90;;;;;;5053375;28;20994;-69
2023/05/26 09:07:11;;;;;;;3.55;2.50;;;24.20;99.90;;;;;;5020339;28;20195;-70
2023/05/26 09:09:41;;;;;;;5.15;2.80;;;24.30;99.90;;;;;;5038026;28;20291;-70
2023/05/26 09:12:11;;;;;;;3.13;2.83;;;24.30;99.90;;;;;;5038132;28;20225;-70
2023/05/26 09:14:39;;;;;;;5.05;3.00;;;24.30;99.90;;;;;;5054917;28;20209;-71
2023/05/26 09:17:06;;;;;;;3.00;2.80;;;24.20;99.90;;;;;;5054248;28;20703;-71
2023/05/26 09:19:34;;;;;;;3.00;2.80;;;24.30;99.90;;;;;;5054092;28;20221;-71
2023/05/26 09:22:07;;;;;;;3.33;2.70;;;24.40;99.90;;;;;;5046895;28;20886;-70
2023/05/26 09:24:46;;;;;;;2.90;2.70;;;24.50;99.90;;;;;;5033664;28;20206;-70
2023/05/26 09:27:21;;;;;;;3.35;2.50;;;24.50;99.90;;;;;;5049695;28;20210;-71
2023/05/26 09:29:49;;;;;;;3.33;3.03;;;24.50;99.90;;;;;;5049515;28;20332;-71
2023/05/26 09:32:16;;;;;;;3.03;2.72;;;24.60;99.90;;;;;;5052200;28;20650;-70
2023/05/26 09:34:44;;;;;;;4.30;2.58;;;24.50;99.90;;;;;;5049069;28;20289;-71
2023/05/26 09:37:12;;;;;;;7.07;2.80;;;24.60;99.90;;;;;;5049315;28;20423;-70
2023/05/26 09:39:40;;;;;;;2.75;2.55;;;24.90;99.90;;;;;;5051132;28;20199;-70
2023/05/26 09:42:09;;;;;;;2.92;2.67;;;25.10;99.90;;;;;;5054689;28;20409;-70
2023/05/26 09:44:36;;;;;;;3.03;2.83;;;25.20;99.90;;;;;;5059806;28;20230;-70
2023/05/26 09:47:04;;;;;;;2.67;2.47;;;25.30;99.90;;;;;;5051061;28;20826;-70
2023/05/26 09:49:32;;;;;;;4.32;2.53;;;25.40;99.90;;;;;;5032462;28;20194;-70
2023/05/26 09:52:00;;;;;;;3.20;2.95;;;25.30;99.90;;;;;;5050700;28;20305;-69
2023/05/26 09:54:28;;;;;;;2.88;2.67;;;25.40;99.90;;;;;;5051530;28;20203;-69
2023/05/26 09:57:01;;;;;;;3.05;2.80;;;25.60;99.90;;;;;;5034266;28;20281;-69
2023/05/26 09:59:36;;;;;;;2.65;2.45;;;25.80;99.90;;;;;;5053616;28;20218;-69
2023/05/26 10:02:12;;;;;;;2.80;2.60;;;25.90;99.90;;;;;;5050816;28;20221;-69
2023/05/26 10:04:42;;;;;;;4.93;2.78;;;25.80;99.90;;;;;;5051725;28;20422;-70
2023/05/26 10:07:09;;;;;;;2.55;2.35;;;25.90;99.90;;;;;;5037842;28;20625;-69
2023/05/26 10:09:38;;;;;;;3.78;3.10;;;26.10;99.90;;;;;;5050713;28;20195;-69
2023/05/26 10:12:08;;;;;;;4.35;2.65;;;26.20;99.90;;;;;;5034640;28;20350;-69
2023/05/26 10:14:37;;;;;;;4.95;2.50;;;26.10;99.90;;;;;;5052377;28;20283;-69
2023/05/26 10:17:05;;;;;;;2.90;2.50;;;26.10;99.90;;;;;;5054646;28;20230;-69
2023/05/26 10:19:32;;;;;;;2.70;2.50;;;26.30;99.90;;;;;;5052970;28;20237;-69
2023/05/26 10:22:12;;;;;;;3.03;2.80;;;26.40;99.90;;;;;;5051022;28;20272;-69
2023/05/26 10:24:43;;;;;;;2.70;2.50;;;26.60;99.90;;;;;;5055408;28;20238;-69
2023/05/26 10:27:18;;;;;;;2.88;2.67;;;26.80;99.90;;;;;;5036841;28;20198;-70
2023/05/26 10:29:55;;;;;;;2.25;2.15;;;27.10;99.90;;;;;;5051509;28;20285;-69
2023/05/26 10:32:47;;;;;;;3.03;2.78;;;27.10;99.90;;;;;;5053463;28;20238;-70
2023/05/26 10:35:28;;;;;;;2.15;2.00;;;27.00;99.90;;;;;;5039775;28;20861;-70
2023/05/26 10:37:57;;;;;;;2.65;2.40;;;27.00;99.90;;;;;;5034681;28;20376;-70
2023/05/26 10:40:37;;;;;;;2.83;2.42;;;27.00;99.90;;;;;;5060147;28;20605;-70
2023/05/26 10:43:13;;;;;;;4.22;2.38;;;27.00;99.90;;;;;;5056425;28;20702;-70
2023/05/26 10:45:47;;;;;;;2.25;2.15;;;27.10;99.90;;;;;;5056801;28;20213;-69
2023/05/26 10:48:14;;;;;;;3.30;2.45;;;27.10;99.90;;;;;;5040639;28;20290;-70
2023/05/26 10:51:09;;;;;;;3.92;2.58;;;27.20;99.90;;;;;;5055590;28;20308;-69
2023/05/26 10:53:41;;;;;;;2.78;2.17;;;27.20;99.90;;;;;;5058088;28;20957;-69
2023/05/26 10:56:11;;;;;;;3.92;2.47;;;27.10;99.90;;;;;;5057202;28;20292;-69
2023/05/26 10:58:40;;;;;;;2.85;2.55;;;27.30;99.90;;;;;;5036658;28;20238;-69
2023/05/26 11:01:11;;;;;;;2.95;2.38;;;27.30;99.90;;;;;;5054546;28;20247;-70
2023/05/26 11:03:41;;;;;;;2.72;2.28;;;27.30;99.90;;;;;;5059444;28;20217;-70
2023/05/26 11:06:10;;;;;;;2.85;2.30;;;27.50;99.90;;;;;;5057662;28;20203;-69
2023/05/26 11:08:38;;;;;;;2.35;2.15;;;27.80;99.90;;;;;;5057102;28;20203;-69
2023/05/26 11:11:07;;;;;;;2.00;1.80;;;27.90;99.90;;;;;;5054729;28;20371;-69
2023/05/26 11:13:49;;;;;;;2.40;2.20;;;27.90;99.90;;;;;;5055722;28;20205;-69
2023/05/26 11:16:35;;;;;;;3.45;2.40;;;28.00;99.90;;;;;;5057386;28;20210;-69
2023/05/26 11:19:05;;;;;;;2.40;2.20;;;28.00;99.90;;;;;;5054845;28;20598;-68
2023/05/26 11:21:34;;;;;;;2.58;2.38;;;27.90;99.90;;;;;;5057037;28;20296;-70
2023/05/26 11:24:03;;;;;;;2.30;2.10;;;27.90;99.90;;;;;;5055374;28;20201;-69
2023/05/26 11:26:31;;;;;;;3.17;2.47;;;28.00;99.90;;;;;;5054485;28;20210;-69
2023/05/26 11:29:00;;;;;;;2.53;2.33;;;28.10;99.90;;;;;;5056882;28;20911;-69
2023/05/26 11:31:29;;;;;;;1.90;1.80;;;28.10;99.90;;;;;;5054053;28;20222;-70
2023/05/26 11:33:58;;;;;;;1.80;1.70;;;28.20;99.90;;;;;;5055774;28;20291;-69
2023/05/26 11:36:26;;;;;;;1.95;1.85;;;28.30;99.90;;;;;;5051183;28;20717;-70
2023/05/26 11:38:56;;;;;;;1.98;1.88;;;28.20;99.90;;;;;;5055022;28;20195;-69
2023/05/26 11:41:25;;;;;;;2.42;2.22;;;28.20;99.90;;;;;;5052183;28;20222;-71
2023/05/26 11:43:54;;;;;;;2.10;1.90;;;28.30;99.90;;;;;;5058604;28;20225;-71
2023/05/26 11:46:22;;;;;;;2.95;2.30;;;28.40;99.90;;;;;;5052325;28;20672;-70
2023/05/26 11:48:51;;;;;;;2.42;2.08;;;28.50;99.90;;;;;;5056340;28;20205;-71
2023/05/26 11:51:20;;;;;;;2.30;2.10;;;28.40;99.90;;;;;;5056845;28;20233;-70
2023/05/26 11:53:52;;;;;;;2.80;2.38;;;28.50;99.90;;;;;;5053304;28;20864;-68
2023/05/26 11:56:20;;;;;;;2.63;2.00;;;28.50;99.90;;;;;;5052387;28;20238;-71
2023/05/26 11:58:49;;;;;;;2.22;2.00;;;28.60;99.90;;;;;;5051291;28;20202;-70
2023/05/26 12:01:16;;;;;;;2.97;2.33;;;28.60;99.90;;;;;;5033755;28;20218;-70
2023/05/26 12:03:46;;;;;;;3.22;2.03;;;28.70;99.90;;;;;;5056617;28;20307;-69
2023/05/26 12:06:19;;;;;;;2.25;2.05;;;28.60;99.90;;;;;;5065583;28;20237;-70
2023/05/26 12:08:48;;;;;;;2.60;1.98;;;28.60;99.90;;;;;;5063003;28;20764;-70
2023/05/26 12:11:18;;;;;;;2.35;1.92;;;28.90;99.90;;;;;;5052314;28;20304;-70
2023/05/26 12:13:45;;;;;;;2.03;1.88;;;28.90;99.90;;;;;;5052867;28;20644;-70
2023/05/26 12:16:22;;;;;;;2.15;1.70;;;29.00;99.90;;;;;;5054372;28;20286;-70
2023/05/26 12:18:53;;;;;;;2.05;1.90;;;28.90;99.90;;;;;;5053231;28;20206;-69
2023/05/26 12:21:22;;;;;;;2.00;1.80;;;29.00;99.90;;;;;;5059615;28;20660;-67
2023/05/26 12:23:49;;;;;;;2.75;2.30;;;29.10;99.90;;;;;;5054204;28;20226;-70
2023/05/26 12:26:17;;;;;;;2.08;1.90;;;29.20;99.90;;;;;;5054911;28;20233;-70
2023/05/26 12:28:45;;;;;;;3.40;2.33;;;29.30;99.90;;;;;;5056352;28;20294;-70
2023/05/26 12:31:12;;;;;;;3.28;2.17;;;29.20;99.90;;;;;;5054995;28;20301;-69
2023/05/26 12:33:39;;;;;;;2.28;2.05;;;29.10;99.90;;;;;;5055989;28;20191;-70
2023/05/26 12:36:07;;;;;;;3.03;2.20;;;29.00;99.90;;;;;;5056204;28;20285;-68
2023/05/26 12:38:43;;;;;;;1.80;1.70;;;28.80;99.90;;;;;;5056371;28;20289;-69
2023/05/26 12:41:10;;;;;;;2.10;2.00;;;28.70;99.90;;;;;;5034056;28;20325;-70
2023/05/26 12:43:37;;;;;;;2.30;2.10;;;28.80;99.90;;;;;;5035418;28;20581;-70
2023/05/26 12:46:05;;;;;;;2.85;1.90;;;28.90;99.90;;;;;;5052751;28;20576;-70
2023/05/26 12:48:32;;;;;;;5.15;2.08;;;28.80;99.90;;;;;;5052241;28;20679;-69
2023/05/26 12:51:01;;;;;;;4.95;2.20;;;28.80;99.90;;;;;;5034454;28;20214;-70
2023/05/26 12:53:28;;;;;;;2.72;2.20;;;28.90;99.90;;;;;;5050791;28;20413;-70
2023/05/26 12:55:57;;;;;;;2.85;2.00;;;29.00;99.90;;;;;;5049888;28;20382;-69